sensor_id;sensor_type;location;lat;lon;timestamp;temperature;humidity
31735;DHT22;18313;48.518;9.124;2023-04-25T00:00:30;8.20;99.90
31735;DHT22;18313;48.518;9.124;2023-04-25T00:02:57;8.30;99.90
31735;DHT22;18313;48.518;9.124;2023-04-25T00:05:27;8.20;99.90
31735;DHT22;18313;48.518;9.124;2023-04-25T00:07:54;8.20;99.90
31735;DHT22;18313;48.518;9.124;2023-04-25T00:10:21;8.20;99.90
31735;DHT22;18313;48.518;9.124;2023-04-25T00:12:49;8.30;99.90
31735;DHT22;18313;48.518;9.124;2023-04-25T00:15:17;8.30;99.90
31735;DHT22;18313;48.518;9.124;2023-04-25T00:17:44;8.20;99.90
31735;DHT22;18313;48.518;9.124;2023-04-25T00:20:12;8.10;99.90
31735;DHT22;18313;48.518;9.124;2023-04-25T00:22:40;8.10;99.90
31735;DHT22;18313;48.518;9.124;2023-04-25T00:25:07;8.10;99.90
31735;DHT22;18313;48.518;9.124;2023-04-25T00:27:34;8.10;99.90
31735;DHT22;18313;48.518;9.124;2023-04-25T00:30:02;8.10;99.90
31735;DHT22;18313;48.518;9.124;2023-04-25T00:32:29;8.10;99.90
31735;DHT22;18313;48.518;9.124;2023-04-25T00:34:56;8.10;99.90
31735;DHT22;18313;48.518;9.124;2023-04-25T00:37:25;8.10;99.90
31735;DHT22;18313;48.518;9.124;2023-04-25T00:39:52;8.10;99.90
31735;DHT22;18313;48.518;9.124;2023-04-25T00:42:21;8.10;99.90
31735;DHT22;18313;48.518;9.124;2023-04-25T00:44:49;8.10;99.90
31735;DHT22;18313;48.518;9.124;2023-04-25T00:47:17;8.10;99.90
31735;DHT22;18313;48.518;9.124;2023-04-25T00:49:45;8.20;99.90
31735;DHT22;18313;48.518;9.124;2023-04-25T00:52:12;8.20;99.90
31735;DHT22;18313;48.518;9.124;2023-04-25T00:54:39;8.20;99.90
31735;DHT22;18313;48.518;9.124;2023-04-25T00:57:06;8.20;99.90
31735;DHT22;18313;48.518;9.124;2023-04-25T00:59:34;8.20;99.90
31735;DHT22;18313;48.518;9.124;2023-04-25T01:02:03;8.20;99.90
31735;DHT22;18313;48.518;9.124;2023-04-25T01:04:30;8.20;99.90
31735;DHT22;18313;48.518;9.124;2023-04-25T01:06:58;8.20;99.90
31735;DHT22;18313;48.518;9.124;2023-04-25T01:09:26;8.20;99.90
31735;DHT22;18313;48.518;9.124;2023-04-25T01:11:53;8.20;99.90
31735;DHT22;18313;48.518;9.124;2023-04-25T01:14:20;8.20;99.90
31735;DHT22;18313;48.518;9.124;2023-04-25T01:16:48;8.20;99.90
31735;DHT22;18313;48.518;9.124;2023-04-25T01:19:16;8.10;99.90
31735;DHT22;18313;48.518;9.124;2023-04-25T01:21:45;8.10;99.90
31735;DHT22;18313;48.518;9.124;2023-04-25T01:24:13;8.10;99.90
31735;DHT22;18313;48.518;9.124;2023-04-25T01:26:41;8.00;99.90
31735;DHT22;18313;48.518;9.124;2023-04-25T01:29:11;8.10;99.90
31735;DHT22;18313;48.518;9.124;2023-04-25T01:31:39;8.10;99.90
31735;DHT22;18313;48.518;9.124;2023-04-25T01:34:06;7.90;99.90
31735;DHT22;18313;48.518;9.124;2023-04-25T01:36:34;8.00;99.90
31735;DHT22;18313;48.518;9.124;2023-04-25T01:39:02;8.00;99.90
31735;DHT22;18313;48.518;9.124;2023-04-25T01:41:29;8.10;99.90
31735;DHT22;18313;48.518;9.124;2023-04-25T01:43:57;8.10;99.90
31735;DHT22;18313;48.518;9.124;2023-04-25T01:46:24;8.00;99.90
31735;DHT22;18313;48.518;9.124;2023-04-25T01:48:51;8.00;99.90
31735;DHT22;18313;48.518;9.124;2023-04-25T01:51:19;8.00;99.90
31735;DHT22;18313;48.518;9.124;2023-04-25T01:53:46;8.00;99.90
31735;DHT22;18313;48.518;9.124;2023-04-25T01:56:14;8.00;99.90
31735;DHT22;18313;48.518;9.124;2023-04-25T01:58:41;7.90;99.90
31735;DHT22;18313;48.518;9.124;2023-04-25T02:01:08;8.00;99.90
31735;DHT22;18313;48.518;9.124;2023-04-25T02:03:36;8.10;99.90
31735;DHT22;18313;48.518;9.124;2023-04-25T02:06:03;8.00;99.90
31735;DHT22;18313;48.518;9.124;2023-04-25T02:08:31;8.00;99.90
31735;DHT22;18313;48.518;9.124;2023-04-25T02:10:58;8.10;99.90
31735;DHT22;18313;48.518;9.124;2023-04-25T02:13:25;8.10;99.90
31735;DHT22;18313;48.518;9.124;2023-04-25T02:15:53;8.00;99.90
31735;DHT22;18313;48.518;9.124;2023-04-25T02:18:20;8.00;99.90
31735;DHT22;18313;48.518;9.124;2023-04-25T02:20:48;8.00;99.90
31735;DHT22;18313;48.518;9.124;2023-04-25T02:23:15;8.00;99.90
31735;DHT22;18313;48.518;9.124;2023-04-25T02:25:42;7.90;99.90
31735;DHT22;18313;48.518;9.124;2023-04-25T02:28:10;7.80;99.90
31735;DHT22;18313;48.518;9.124;2023-04-25T02:30:37;7.80;99.90
31735;DHT22;18313;48.518;9.124;2023-04-25T02:33:04;7.80;99.90
31735;DHT22;18313;48.518;9.124;2023-04-25T02:35:31;7.90;99.90
31735;DHT22;18313;48.518;9.124;2023-04-25T02:37:59;7.80;99.90
31735;DHT22;18313;48.518;9.124;2023-04-25T02:40:26;7.80;99.90
31735;DHT22;18313;48.518;9.124;2023-04-25T02:42:53;7.80;99.90
31735;DHT22;18313;48.518;9.124;2023-04-25T02:45:20;7.80;99.90
31735;DHT22;18313;48.518;9.124;2023-04-25T02:47:47;7.70;99.90
31735;DHT22;18313;48.518;9.124;2023-04-25T02:50:15;7.60;99.90
31735;DHT22;18313;48.518;9.124;2023-04-25T02:52:42;7.60;99.90
31735;DHT22;18313;48.518;9.124;2023-04-25T02:55:09;7.60;99.90
31735;DHT22;18313;48.518;9.124;2023-04-25T02:57:37;7.60;99.90
31735;DHT22;18313;48.518;9.124;2023-04-25T03:00:05;7.60;99.90
31735;DHT22;18313;48.518;9.124;2023-04-25T03:02:33;7.60;99.90
31735;DHT22;18313;48.518;9.124;2023-04-25T03:05:00;7.60;99.90
31735;DHT22;18313;48.518;9.124;2023-04-25T03:07:27;7.50;99.90
31735;DHT22;18313;48.518;9.124;2023-04-25T03:09:55;7.60;99.90
31735;DHT22;18313;48.518;9.124;2023-04-25T03:12:23;7.50;99.90
31735;DHT22;18313;48.518;9.124;2023-04-25T03:14:50;7.50;99.90
31735;DHT22;18313;48.518;9.124;2023-04-25T03:17:17;7.50;99.90
31735;DHT22;18313;48.518;9.124;2023-04-25T03:19:45;7.40;99.90
31735;DHT22;18313;48.518;9.124;2023-04-25T03:22:12;7.30;99.90
31735;DHT22;18313;48.518;9.124;2023-04-25T03:24:39;7.30;99.90
31735;DHT22;18313;48.518;9.124;2023-04-25T03:27:07;7.30;99.90
31735;DHT22;18313;48.518;9.124;2023-04-25T03:29:34;7.30;99.90
31735;DHT22;18313;48.518;9.124;2023-04-25T03:32:01;7.20;99.90
31735;DHT22;18313;48.518;9.124;2023-04-25T03:34:29;7.20;99.90
31735;DHT22;18313;48.518;9.124;2023-04-25T03:36:56;7.10;99.90
31735;DHT22;18313;48.518;9.124;2023-04-25T03:39:23;7.30;99.90
31735;DHT22;18313;48.518;9.124;2023-04-25T03:41:50;7.30;99.90
31735;DHT22;18313;48.518;9.124;2023-04-25T03:44:18;7.40;99.90
31735;DHT22;18313;48.518;9.124;2023-04-25T03:46:45;7.30;99.90
31735;DHT22;18313;48.518;9.124;2023-04-25T03:49:12;7.20;99.90
31735;DHT22;18313;48.518;9.124;2023-04-25T03:51:42;7.20;99.90
31735;DHT22;18313;48.518;9.124;2023-04-25T03:54:09;7.30;99.90
31735;DHT22;18313;48.518;9.124;2023-04-25T03:56:38;7.20;99.90
31735;DHT22;18313;48.518;9.124;2023-04-25T03:59:05;7.20;99.90
31735;DHT22;18313;48.518;9.124;2023-04-25T04:01:32;7.20;99.90
31735;DHT22;18313;48.518;9.124;2023-04-25T04:03:59;7.30;99.90
31735;DHT22;18313;48.518;9.124;2023-04-25T04:06:27;7.30;99.90
31735;DHT22;18313;48.518;9.124;2023-04-25T04:08:55;7.20;99.90
31735;DHT22;18313;48.518;9.124;2023-04-25T04:11:23;7.30;99.90
31735;DHT22;18313;48.518;9.124;2023-04-25T04:13:51;7.20;99.90
31735;DHT22;18313;48.518;9.124;2023-04-25T04:16:18;7.30;99.90
31735;DHT22;18313;48.518;9.124;2023-04-25T04:18:46;7.40;99.90
31735;DHT22;18313;48.518;9.124;2023-04-25T04:21:13;7.40;99.90
31735;DHT22;18313;48.518;9.124;2023-04-25T04:23:40;7.30;99.90
31735;DHT22;18313;48.518;9.124;2023-04-25T04:26:07;7.20;99.90
31735;DHT22;18313;48.518;9.124;2023-04-25T04:28:35;7.10;99.90
31735;DHT22;18313;48.518;9.124;2023-04-25T04:31:03;7.10;99.90
31735;DHT22;18313;48.518;9.124;2023-04-25T04:33:31;7.10;99.90
31735;DHT22;18313;48.518;9.124;2023-04-25T04:35:58;7.10;99.90
31735;DHT22;18313;48.518;9.124;2023-04-25T04:38:26;7.00;99.90
31735;DHT22;18313;48.518;9.124;2023-04-25T04:40:53;7.00;99.90
31735;DHT22;18313;48.518;9.124;2023-04-25T04:43:20;7.10;99.90
31735;DHT22;18313;48.518;9.124;2023-04-25T04:45:50;7.10;99.90
31735;DHT22;18313;48.518;9.124;2023-04-25T04:48:17;7.00;99.90
31735;DHT22;18313;48.518;9.124;2023-04-25T04:50:44;7.00;99.90
31735;DHT22;18313;48.518;9.124;2023-04-25T04:53:14;7.00;99.90
31735;DHT22;18313;48.518;9.124;2023-04-25T04:55:41;7.00;99.90
31735;DHT22;18313;48.518;9.124;2023-04-25T04:58:09;7.00;99.90
31735;DHT22;18313;48.518;9.124;2023-04-25T05:00:36;7.10;99.90
31735;DHT22;18313;48.518;9.124;2023-04-25T05:03:05;7.20;99.90
31735;DHT22;18313;48.518;9.124;2023-04-25T05:05:33;7.30;99.90
31735;DHT22;18313;48.518;9.124;2023-04-25T05:08:00;7.30;99.90
31735;DHT22;18313;48.518;9.124;2023-04-25T05:10:29;7.30;99.90
31735;DHT22;18313;48.518;9.124;2023-04-25T05:12:56;7.30;99.90
31735;DHT22;18313;48.518;9.124;2023-04-25T05:15:23;7.30;99.90
31735;DHT22;18313;48.518;9.124;2023-04-25T05:17:51;7.40;99.90
31735;DHT22;18313;48.518;9.124;2023-04-25T05:20:18;7.40;99.90
31735;DHT22;18313;48.518;9.124;2023-04-25T05:22:46;7.50;99.90
31735;DHT22;18313;48.518;9.124;2023-04-25T05:25:13;7.50;99.90
31735;DHT22;18313;48.518;9.124;2023-04-25T05:27:40;7.60;99.90
31735;DHT22;18313;48.518;9.124;2023-04-25T05:30:08;7.60;99.90
31735;DHT22;18313;48.518;9.124;2023-04-25T05:32:36;7.60;99.90
31735;DHT22;18313;48.518;9.124;2023-04-25T05:35:03;7.70;99.90
31735;DHT22;18313;48.518;9.124;2023-04-25T05:37:33;7.60;99.90
31735;DHT22;18313;48.518;9.124;2023-04-25T05:40:01;7.70;99.90
31735;DHT22;18313;48.518;9.124;2023-04-25T05:42:28;7.80;99.90
31735;DHT22;18313;48.518;9.124;2023-04-25T05:44:55;7.90;99.90
31735;DHT22;18313;48.518;9.124;2023-04-25T05:47:23;7.90;99.90
31735;DHT22;18313;48.518;9.124;2023-04-25T05:49:50;8.00;99.90
31735;DHT22;18313;48.518;9.124;2023-04-25T05:52:17;8.10;99.90
31735;DHT22;18313;48.518;9.124;2023-04-25T05:54:49;8.10;99.90
31735;DHT22;18313;48.518;9.124;2023-04-25T05:57:24;8.20;99.90
31735;DHT22;18313;48.518;9.124;2023-04-25T05:59:51;8.30;99.90
31735;DHT22;18313;48.518;9.124;2023-04-25T06:02:20;8.40;99.90
31735;DHT22;18313;48.518;9.124;2023-04-25T06:04:50;8.40;99.90
31735;DHT22;18313;48.518;9.124;2023-04-25T06:07:19;8.50;99.90
31735;DHT22;18313;48.518;9.124;2023-04-25T06:09:46;8.60;99.90
31735;DHT22;18313;48.518;9.124;2023-04-25T06:12:14;8.80;99.90
31735;DHT22;18313;48.518;9.124;2023-04-25T06:14:41;8.90;99.90
31735;DHT22;18313;48.518;9.124;2023-04-25T06:17:08;8.90;99.90
31735;DHT22;18313;48.518;9.124;2023-04-25T06:19:36;8.90;99.90
31735;DHT22;18313;48.518;9.124;2023-04-25T06:22:03;9.00;99.90
31735;DHT22;18313;48.518;9.124;2023-04-25T06:24:30;8.90;99.90
31735;DHT22;18313;48.518;9.124;2023-04-25T06:26:57;8.70;99.90
31735;DHT22;18313;48.518;9.124;2023-04-25T06:29:24;8.70;99.90
31735;DHT22;18313;48.518;9.124;2023-04-25T06:31:51;8.60;99.90
31735;DHT22;18313;48.518;9.124;2023-04-25T06:34:19;8.50;99.90
31735;DHT22;18313;48.518;9.124;2023-04-25T06:36:46;8.50;99.90
31735;DHT22;18313;48.518;9.124;2023-04-25T06:39:13;8.50;99.90
31735;DHT22;18313;48.518;9.124;2023-04-25T06:41:40;8.60;99.90
31735;DHT22;18313;48.518;9.124;2023-04-25T06:44:07;8.70;99.90
31735;DHT22;18313;48.518;9.124;2023-04-25T06:46:34;8.70;99.90
31735;DHT22;18313;48.518;9.124;2023-04-25T06:49:01;8.70;99.90
31735;DHT22;18313;48.518;9.124;2023-04-25T06:51:28;8.80;99.90
31735;DHT22;18313;48.518;9.124;2023-04-25T06:53:56;8.80;99.90
31735;DHT22;18313;48.518;9.124;2023-04-25T06:56:23;8.80;99.90
31735;DHT22;18313;48.518;9.124;2023-04-25T06:58:51;8.80;99.90
31735;DHT22;18313;48.518;9.124;2023-04-25T07:01:18;8.90;99.90
31735;DHT22;18313;48.518;9.124;2023-04-25T07:03:46;8.90;99.90
31735;DHT22;18313;48.518;9.124;2023-04-25T07:06:13;9.00;99.90
31735;DHT22;18313;48.518;9.124;2023-04-25T07:08:40;9.00;99.90
31735;DHT22;18313;48.518;9.124;2023-04-25T07:11:08;9.00;99.90
31735;DHT22;18313;48.518;9.124;2023-04-25T07:13:35;9.00;99.90
31735;DHT22;18313;48.518;9.124;2023-04-25T07:16:02;9.00;99.90
31735;DHT22;18313;48.518;9.124;2023-04-25T07:18:30;9.00;99.90
31735;DHT22;18313;48.518;9.124;2023-04-25T07:20:57;8.90;99.90
31735;DHT22;18313;48.518;9.124;2023-04-25T07:23:24;9.00;99.90
31735;DHT22;18313;48.518;9.124;2023-04-25T07:25:51;9.00;99.90
31735;DHT22;18313;48.518;9.124;2023-04-25T07:28:18;9.00;99.90
31735;DHT22;18313;48.518;9.124;2023-04-25T07:30:45;9.00;99.90
31735;DHT22;18313;48.518;9.124;2023-04-25T07:33:12;9.00;99.90
31735;DHT22;18313;48.518;9.124;2023-04-25T07:35:40;9.00;99.90
31735;DHT22;18313;48.518;9.124;2023-04-25T07:38:07;9.00;99.90
31735;DHT22;18313;48.518;9.124;2023-04-25T07:40:34;9.10;99.90
31735;DHT22;18313;48.518;9.124;2023-04-25T07:43:02;9.20;99.90
31735;DHT22;18313;48.518;9.124;2023-04-25T07:45:29;9.20;99.90
31735;DHT22;18313;48.518;9.124;2023-04-25T07:47:56;9.10;99.90
31735;DHT22;18313;48.518;9.124;2023-04-25T07:50:23;9.10;99.90
31735;DHT22;18313;48.518;9.124;2023-04-25T07:52:50;9.10;99.90
31735;DHT22;18313;48.518;9.124;2023-04-25T07:55:18;9.10;99.90
31735;DHT22;18313;48.518;9.124;2023-04-25T07:57:45;9.10;99.90
31735;DHT22;18313;48.518;9.124;2023-04-25T08:00:13;9.10;99.90
31735;DHT22;18313;48.518;9.124;2023-04-25T08:02:40;9.00;99.90
31735;DHT22;18313;48.518;9.124;2023-04-25T08:05:07;9.10;99.90
31735;DHT22;18313;48.518;9.124;2023-04-25T08:07:38;9.10;99.90
31735;DHT22;18313;48.518;9.124;2023-04-25T08:10:06;9.10;99.90
31735;DHT22;18313;48.518;9.124;2023-04-25T08:12:33;9.20;99.90
31735;DHT22;18313;48.518;9.124;2023-04-25T08:15:01;9.10;99.90
31735;DHT22;18313;48.518;9.124;2023-04-25T08:17:27;9.10;99.90
31735;DHT22;18313;48.518;9.124;2023-04-25T08:19:54;9.20;99.90
31735;DHT22;18313;48.518;9.124;2023-04-25T08:22:22;9.20;99.90
31735;DHT22;18313;48.518;9.124;2023-04-25T08:24:49;9.20;99.90
31735;DHT22;18313;48.518;9.124;2023-04-25T08:27:17;9.20;99.90
31735;DHT22;18313;48.518;9.124;2023-04-25T08:29:45;9.10;99.90
31735;DHT22;18313;48.518;9.124;2023-04-25T08:32:12;9.00;99.90
31735;DHT22;18313;48.518;9.124;2023-04-25T08:34:39;9.00;99.90
31735;DHT22;18313;48.518;9.124;2023-04-25T08:37:08;9.00;99.90
31735;DHT22;18313;48.518;9.124;2023-04-25T08:39:37;9.00;99.90
31735;DHT22;18313;48.518;9.124;2023-04-25T08:42:06;8.90;99.90
31735;DHT22;18313;48.518;9.124;2023-04-25T08:44:36;8.90;99.90
31735;DHT22;18313;48.518;9.124;2023-04-25T08:47:04;9.00;99.90
31735;DHT22;18313;48.518;9.124;2023-04-25T08:49:33;9.00;99.90
31735;DHT22;18313;48.518;9.124;2023-04-25T08:52:04;9.00;99.90
31735;DHT22;18313;48.518;9.124;2023-04-25T08:54:34;8.90;99.90
31735;DHT22;18313;48.518;9.124;2023-04-25T08:57:05;8.90;99.90
31735;DHT22;18313;48.518;9.124;2023-04-25T08:59:33;8.80;99.90
31735;DHT22;18313;48.518;9.124;2023-04-25T09:02:03;8.80;99.90
31735;DHT22;18313;48.518;9.124;2023-04-25T09:04:33;8.80;99.90
31735;DHT22;18313;48.518;9.124;2023-04-25T09:07:00;8.80;99.90
31735;DHT22;18313;48.518;9.124;2023-04-25T09:09:27;8.80;99.90
31735;DHT22;18313;48.518;9.124;2023-04-25T09:11:54;8.80;99.90
31735;DHT22;18313;48.518;9.124;2023-04-25T09:14:23;8.80;99.90
31735;DHT22;18313;48.518;9.124;2023-04-25T09:22:00;8.60;99.90
31735;DHT22;18313;48.518;9.124;2023-04-25T09:24:37;8.50;99.90
31735;DHT22;18313;48.518;9.124;2023-04-25T09:27:08;8.40;99.90
31735;DHT22;18313;48.518;9.124;2023-04-25T09:29:37;8.40;99.90
31735;DHT22;18313;48.518;9.124;2023-04-25T09:32:14;8.30;99.90
31735;DHT22;18313;48.518;9.124;2023-04-25T09:34:44;8.30;99.90
31735;DHT22;18313;48.518;9.124;2023-04-25T09:37:11;8.40;99.90
31735;DHT22;18313;48.518;9.124;2023-04-25T09:39:39;8.40;99.90
31735;DHT22;18313;48.518;9.124;2023-04-25T09:42:06;8.30;99.90
31735;DHT22;18313;48.518;9.124;2023-04-25T09:44:33;8.30;99.90
31735;DHT22;18313;48.518;9.124;2023-04-25T09:47:00;8.20;99.90
31735;DHT22;18313;48.518;9.124;2023-04-25T09:49:27;8.20;99.90
31735;DHT22;18313;48.518;9.124;2023-04-25T09:51:55;8.20;99.90
31735;DHT22;18313;48.518;9.124;2023-04-25T09:54:24;8.20;99.90
31735;DHT22;18313;48.518;9.124;2023-04-25T09:56:53;8.20;99.90
31735;DHT22;18313;48.518;9.124;2023-04-25T09:59:21;8.20;99.90
31735;DHT22;18313;48.518;9.124;2023-04-25T10:01:52;8.10;99.90
31735;DHT22;18313;48.518;9.124;2023-04-25T10:04:25;8.00;99.90
31735;DHT22;18313;48.518;9.124;2023-04-25T10:06:57;7.90;99.90
31735;DHT22;18313;48.518;9.124;2023-04-25T10:09:26;7.80;99.90
31735;DHT22;18313;48.518;9.124;2023-04-25T10:11:59;7.70;99.90
31735;DHT22;18313;48.518;9.124;2023-04-25T10:14:28;7.60;99.90
31735;DHT22;18313;48.518;9.124;2023-04-25T10:16:57;7.50;99.90
31735;DHT22;18313;48.518;9.124;2023-04-25T10:19:25;7.50;99.90
31735;DHT22;18313;48.518;9.124;2023-04-25T10:24:31;7.50;99.90
31735;DHT22;18313;48.518;9.124;2023-04-25T10:26:59;7.40;99.90
31735;DHT22;18313;48.518;9.124;2023-04-25T10:29:26;7.30;99.90
31735;DHT22;18313;48.518;9.124;2023-04-25T10:31:54;7.30;99.90
31735;DHT22;18313;48.518;9.124;2023-04-25T10:34:25;7.40;99.90
31735;DHT22;18313;48.518;9.124;2023-04-25T10:37:05;7.40;99.90
31735;DHT22;18313;48.518;9.124;2023-04-25T10:39:32;7.30;99.90
31735;DHT22;18313;48.518;9.124;2023-04-25T10:42:02;7.30;99.90
31735;DHT22;18313;48.518;9.124;2023-04-25T10:44:30;7.20;99.90
31735;DHT22;18313;48.518;9.124;2023-04-25T10:47:00;7.20;99.90
31735;DHT22;18313;48.518;9.124;2023-04-25T10:49:33;7.10;99.90
31735;DHT22;18313;48.518;9.124;2023-04-25T10:52:26;7.10;99.90
31735;DHT22;18313;48.518;9.124;2023-04-25T10:54:56;7.20;99.90
31735;DHT22;18313;48.518;9.124;2023-04-25T10:57:36;7.30;99.90
31735;DHT22;18313;48.518;9.124;2023-04-25T11:00:10;7.30;99.90
31735;DHT22;18313;48.518;9.124;2023-04-25T11:02:42;7.30;99.90
31735;DHT22;18313;48.518;9.124;2023-04-25T11:05:10;7.20;99.90
31735;DHT22;18313;48.518;9.124;2023-04-25T11:10:32;7.20;99.90
31735;DHT22;18313;48.518;9.124;2023-04-25T11:13:02;7.30;99.90
31735;DHT22;18313;48.518;9.124;2023-04-25T11:15:29;7.50;99.90
31735;DHT22;18313;48.518;9.124;2023-04-25T11:17:56;7.60;99.90
31735;DHT22;18313;48.518;9.124;2023-04-25T11:20:25;7.70;99.90
31735;DHT22;18313;48.518;9.124;2023-04-25T11:22:53;7.90;99.90
31735;DHT22;18313;48.518;9.124;2023-04-25T11:25:20;7.80;99.90
31735;DHT22;18313;48.518;9.124;2023-04-25T11:27:50;7.80;99.90
31735;DHT22;18313;48.518;9.124;2023-04-25T11:30:18;7.60;99.90
31735;DHT22;18313;48.518;9.124;2023-04-25T11:32:46;7.40;99.90
31735;DHT22;18313;48.518;9.124;2023-04-25T11:35:13;7.30;99.90
31735;DHT22;18313;48.518;9.124;2023-04-25T11:37:41;7.50;99.90
31735;DHT22;18313;48.518;9.124;2023-04-25T11:40:09;7.70;99.90
31735;DHT22;18313;48.518;9.124;2023-04-25T11:42:38;7.70;99.90
31735;DHT22;18313;48.518;9.124;2023-04-25T11:45:06;7.70;99.90
31735;DHT22;18313;48.518;9.124;2023-04-25T11:47:33;7.50;99.90
31735;DHT22;18313;48.518;9.124;2023-04-25T11:50:02;7.60;99.90
31735;DHT22;18313;48.518;9.124;2023-04-25T11:52:40;7.70;99.90
31735;DHT22;18313;48.518;9.124;2023-04-25T11:55:09;7.90;99.90
31735;DHT22;18313;48.518;9.124;2023-04-25T11:57:38;7.90;99.90
31735;DHT22;18313;48.518;9.124;2023-04-25T12:00:14;8.10;99.90
31735;DHT22;18313;48.518;9.124;2023-04-25T12:02:47;8.10;99.90
31735;DHT22;18313;48.518;9.124;2023-04-25T12:05:15;8.20;99.90
31735;DHT22;18313;48.518;9.124;2023-04-25T12:08:09;8.00;99.90
31735;DHT22;18313;48.518;9.124;2023-04-25T12:10:38;8.00;99.90
31735;DHT22;18313;48.518;9.124;2023-04-25T12:13:20;8.20;99.90
31735;DHT22;18313;48.518;9.124;2023-04-25T12:15:47;8.40;99.90
31735;DHT22;18313;48.518;9.124;2023-04-25T12:18:14;8.70;99.90
31735;DHT22;18313;48.518;9.124;2023-04-25T12:20:41;8.70;99.90
31735;DHT22;18313;48.518;9.124;2023-04-25T12:23:09;8.80;99.90
31735;DHT22;18313;48.518;9.124;2023-04-25T12:25:38;8.80;99.90
31735;DHT22;18313;48.518;9.124;2023-04-25T12:28:25;8.90;99.90
31735;DHT22;18313;48.518;9.124;2023-04-25T12:31:02;9.00;99.90
31735;DHT22;18313;48.518;9.124;2023-04-25T12:33:35;9.10;99.90
31735;DHT22;18313;48.518;9.124;2023-04-25T12:36:03;9.20;99.90
31735;DHT22;18313;48.518;9.124;2023-04-25T12:38:40;9.30;99.90
31735;DHT22;18313;48.518;9.124;2023-04-25T12:41:07;9.40;99.90
31735;DHT22;18313;48.518;9.124;2023-04-25T12:43:34;9.40;99.90
31735;DHT22;18313;48.518;9.124;2023-04-25T12:46:02;9.40;99.90
31735;DHT22;18313;48.518;9.124;2023-04-25T12:48:30;9.60;99.90
31735;DHT22;18313;48.518;9.124;2023-04-25T12:50:57;9.80;99.90
31735;DHT22;18313;48.518;9.124;2023-04-25T12:53:24;10.00;99.90
31735;DHT22;18313;48.518;9.124;2023-04-25T12:55:51;10.20;99.90
31735;DHT22;18313;48.518;9.124;2023-04-25T12:58:19;10.30;99.90
31735;DHT22;18313;48.518;9.124;2023-04-25T13:00:46;10.20;99.90
31735;DHT22;18313;48.518;9.124;2023-04-25T13:03:14;10.40;99.90
31735;DHT22;18313;48.518;9.124;2023-04-25T13:05:42;10.40;99.90
31735;DHT22;18313;48.518;9.124;2023-04-25T13:08:09;10.50;99.90
31735;DHT22;18313;48.518;9.124;2023-04-25T13:10:36;10.50;99.90
31735;DHT22;18313;48.518;9.124;2023-04-25T13:13:05;10.50;99.90
31735;DHT22;18313;48.518;9.124;2023-04-25T13:15:32;10.50;99.90
31735;DHT22;18313;48.518;9.124;2023-04-25T13:17:59;10.70;99.90
31735;DHT22;18313;48.518;9.124;2023-04-25T13:20:26;10.80;99.90
31735;DHT22;18313;48.518;9.124;2023-04-25T13:22:53;10.80;99.90
31735;DHT22;18313;48.518;9.124;2023-04-25T13:25:20;11.00;99.90
31735;DHT22;18313;48.518;9.124;2023-04-25T13:27:48;11.00;99.90
31735;DHT22;18313;48.518;9.124;2023-04-25T13:30:16;11.10;99.90
31735;DHT22;18313;48.518;9.124;2023-04-25T13:32:43;11.10;99.90
31735;DHT22;18313;48.518;9.124;2023-04-25T13:35:12;10.90;99.90
31735;DHT22;18313;48.518;9.124;2023-04-25T13:37:40;11.00;99.90
31735;DHT22;18313;48.518;9.124;2023-04-25T13:40:09;10.90;99.90
31735;DHT22;18313;48.518;9.124;2023-04-25T13:42:38;10.90;99.90
31735;DHT22;18313;48.518;9.124;2023-04-25T13:45:06;11.00;99.90
31735;DHT22;18313;48.518;9.124;2023-04-25T13:47:34;11.00;99.90
31735;DHT22;18313;48.518;9.124;2023-04-25T13:50:01;11.10;99.90
31735;DHT22;18313;48.518;9.124;2023-04-25T13:52:30;11.00;99.90
31735;DHT22;18313;48.518;9.124;2023-04-25T13:54:57;11.20;99.90
31735;DHT22;18313;48.518;9.124;2023-04-25T13:57:24;11.50;99.90
31735;DHT22;18313;48.518;9.124;2023-04-25T13:59:52;11.80;99.90
31735;DHT22;18313;48.518;9.124;2023-04-25T14:02:19;12.20;99.90
31735;DHT22;18313;48.518;9.124;2023-04-25T14:04:46;12.50;99.90
31735;DHT22;18313;48.518;9.124;2023-04-25T14:07:14;12.70;99.90
31735;DHT22;18313;48.518;9.124;2023-04-25T14:09:46;12.90;99.90
31735;DHT22;18313;48.518;9.124;2023-04-25T14:12:13;13.10;99.90
31735;DHT22;18313;48.518;9.124;2023-04-25T14:14:40;12.90;99.90
31735;DHT22;18313;48.518;9.124;2023-04-25T14:17:08;12.90;99.90
31735;DHT22;18313;48.518;9.124;2023-04-25T14:19:35;12.80;99.90
31735;DHT22;18313;48.518;9.124;2023-04-25T14:22:04;12.70;99.90
31735;DHT22;18313;48.518;9.124;2023-04-25T14:24:31;12.70;99.90
31735;DHT22;18313;48.518;9.124;2023-04-25T14:26:58;12.60;99.90
31735;DHT22;18313;48.518;9.124;2023-04-25T14:29:25;12.60;99.90
31735;DHT22;18313;48.518;9.124;2023-04-25T14:31:52;12.60;99.90
31735;DHT22;18313;48.518;9.124;2023-04-25T14:34:21;12.40;99.90
31735;DHT22;18313;48.518;9.124;2023-04-25T14:36:48;12.10;99.90
31735;DHT22;18313;48.518;9.124;2023-04-25T14:39:15;11.80;99.90
31735;DHT22;18313;48.518;9.124;2023-04-25T14:41:43;11.80;99.90
31735;DHT22;18313;48.518;9.124;2023-04-25T14:44:10;11.90;99.90
31735;DHT22;18313;48.518;9.124;2023-04-25T14:46:37;12.00;99.90
31735;DHT22;18313;48.518;9.124;2023-04-25T14:49:04;12.30;99.90
31735;DHT22;18313;48.518;9.124;2023-04-25T14:51:32;12.30;99.90
31735;DHT22;18313;48.518;9.124;2023-04-25T14:53:59;12.30;99.90
31735;DHT22;18313;48.518;9.124;2023-04-25T14:56:26;12.30;99.90
31735;DHT22;18313;48.518;9.124;2023-04-25T14:58:53;12.80;99.90
31735;DHT22;18313;48.518;9.124;2023-04-25T15:01:22;13.20;99.90
31735;DHT22;18313;48.518;9.124;2023-04-25T15:03:50;13.30;99.90
31735;DHT22;18313;48.518;9.124;2023-04-25T15:06:18;13.10;99.90
31735;DHT22;18313;48.518;9.124;2023-04-25T15:08:45;12.90;99.90
31735;DHT22;18313;48.518;9.124;2023-04-25T15:11:12;12.90;99.90
31735;DHT22;18313;48.518;9.124;2023-04-25T15:13:39;12.90;99.90
31735;DHT22;18313;48.518;9.124;2023-04-25T15:16:06;12.90;99.90
31735;DHT22;18313;48.518;9.124;2023-04-25T15:18:33;13.00;99.90
31735;DHT22;18313;48.518;9.124;2023-04-25T15:21:01;12.90;99.90
31735;DHT22;18313;48.518;9.124;2023-04-25T15:23:28;12.90;99.90
31735;DHT22;18313;48.518;9.124;2023-04-25T15:25:55;13.00;99.90
31735;DHT22;18313;48.518;9.124;2023-04-25T15:28:22;13.40;99.90
31735;DHT22;18313;48.518;9.124;2023-04-25T15:30:49;13.80;99.90
31735;DHT22;18313;48.518;9.124;2023-04-25T15:33:17;14.20;99.90
31735;DHT22;18313;48.518;9.124;2023-04-25T15:35:44;14.40;99.90
31735;DHT22;18313;48.518;9.124;2023-04-25T15:38:11;14.50;99.90
31735;DHT22;18313;48.518;9.124;2023-04-25T15:40:40;14.60;99.90
31735;DHT22;18313;48.518;9.124;2023-04-25T15:43:07;14.70;99.90
31735;DHT22;18313;48.518;9.124;2023-04-25T15:45:37;14.30;99.90
31735;DHT22;18313;48.518;9.124;2023-04-25T15:48:04;14.30;99.90
31735;DHT22;18313;48.518;9.124;2023-04-25T15:50:32;13.90;99.90
31735;DHT22;18313;48.518;9.124;2023-04-25T15:52:59;13.70;99.90
31735;DHT22;18313;48.518;9.124;2023-04-25T15:55:26;13.80;99.90
31735;DHT22;18313;48.518;9.124;2023-04-25T15:57:54;13.70;99.90